createdAt,value
2023-01-06T00:00:12.354Z,18.30
2023-01-06T00:02:14.399Z,18.40
2023-01-06T00:04:16.464Z,18.30
2023-01-06T00:06:19.716Z,18.40
2023-01-06T00:08:21.796Z,18.30
2023-01-06T00:10:23.840Z,18.30
2023-01-06T00:12:25.806Z,18.50
2023-01-06T00:14:27.818Z,18.50
2023-01-06T00:16:29.994Z,18.50
2023-01-06T00:18:31.921Z,18.40
2023-01-06T00:20:34.003Z,18.40
2023-01-06T00:22:36.024Z,18.30
2023-01-06T00:24:38.202Z,18.40
2023-01-06T00:26:40.158Z,18.50
2023-01-06T00:28:42.264Z,18.50
2023-01-06T00:30:44.421Z,18.50
2023-01-06T00:32:47.878Z,18.50
2023-01-06T00:34:49.869Z,18.40
2023-01-06T00:36:51.889Z,18.50
2023-01-06T00:38:53.922Z,18.40
2023-01-06T00:40:55.993Z,18.30
2023-01-06T00:42:57.967Z,18.40
2023-01-06T00:45:00.025Z,18.40
2023-01-06T00:47:02.479Z,18.40
2023-01-06T00:49:06.947Z,18.30
2023-01-06T00:51:09.591Z,18.40
2023-01-06T00:53:11.754Z,18.50
2023-01-06T00:55:14.014Z,18.30
2023-01-06T00:57:17.508Z,18.40
2023-01-06T00:59:20.755Z,18.40
2023-01-06T01:01:23.226Z,18.50
2023-01-06T01:03:25.418Z,18.40
2023-01-06T01:05:27.417Z,18.40
2023-01-06T01:07:29.469Z,18.30
2023-01-06T01:09:33.172Z,18.30
2023-01-06T01:11:35.347Z,18.40
2023-01-06T01:13:37.494Z,18.40
2023-01-06T01:15:39.552Z,18.40
2023-01-06T01:17:41.582Z,18.30
2023-01-06T01:19:43.835Z,18.40
2023-01-06T01:21:46.358Z,18.30
2023-01-06T01:23:49.081Z,18.40
2023-01-06T01:25:54.661Z,18.40
2023-01-06T01:27:56.708Z,18.20
2023-01-06T01:29:58.702Z,18.40
2023-01-06T01:32:00.987Z,18.20
2023-01-06T01:34:03.078Z,18.20
2023-01-06T01:36:12.284Z,18.30
2023-01-06T01:38:14.418Z,18.20
2023-01-06T01:40:16.464Z,18.40
2023-01-06T01:42:19.750Z,18.30
2023-01-06T01:44:40.485Z,18.20
2023-01-06T01:46:43.516Z,18.20
2023-01-06T01:48:45.686Z,18.20
2023-01-06T01:50:51.153Z,18.20
2023-01-06T01:52:54.817Z,18.20
2023-01-06T01:54:57.186Z,18.30
2023-01-06T01:57:01.479Z,18.20
2023-01-06T01:59:10.689Z,18.30
2023-01-06T02:01:13.006Z,18.10
2023-01-06T02:03:15.720Z,18.20
2023-01-06T02:05:21.732Z,18.10
2023-01-06T02:07:25.883Z,18.20
2023-01-06T02:09:27.829Z,18.10
2023-01-06T02:11:32.180Z,18.10
2023-01-06T02:13:35.230Z,18.20
2023-01-06T02:15:37.391Z,18.10
2023-01-06T02:17:44.938Z,18.20
2023-01-06T02:20:04.943Z,18.10
2023-01-06T02:22:25.548Z,18.00
2023-01-06T02:24:27.599Z,18.10
2023-01-06T02:26:35.892Z,18.00
2023-01-06T02:28:37.926Z,18.20
2023-01-06T02:30:55.706Z,18.20
2023-01-06T02:33:09.901Z,18.20
2023-01-06T02:35:14.558Z,18.00
2023-01-06T02:37:35.083Z,18.00
2023-01-06T02:39:36.995Z,18.10
2023-01-06T02:41:42.486Z,18.10
2023-01-06T02:44:03.773Z,18.10
2023-01-06T02:46:08.594Z,18.00
2023-01-06T02:48:29.509Z,18.10
2023-01-06T02:50:51.179Z,18.10
2023-01-06T02:52:53.288Z,18.00
2023-01-06T02:55:05.192Z,18.10
2023-01-06T02:57:22.163Z,18.00
2023-01-06T02:59:29.704Z,18.00
2023-01-06T03:01:36.356Z,18.10
2023-01-06T03:03:40.618Z,18.00
2023-01-06T03:05:45.456Z,18.10
2023-01-06T03:07:48.193Z,18.00
2023-01-06T03:09:52.585Z,18.10
2023-01-06T03:11:54.660Z,18.10
2023-01-06T03:13:59.256Z,18.10
2023-01-06T03:16:03.416Z,18.10
2023-01-06T03:18:05.520Z,18.10
2023-01-06T03:20:09.551Z,18.10
2023-01-06T03:22:12.238Z,18.00
2023-01-06T03:24:17.445Z,18.10
2023-01-06T03:26:21.290Z,18.00
2023-01-06T03:28:27.430Z,18.10
2023-01-06T03:30:36.244Z,18.10
2023-01-06T03:32:43.111Z,18.00
2023-01-06T03:34:48.248Z,17.90
2023-01-06T03:36:57.845Z,18.00
2023-01-06T03:39:07.281Z,18.10
2023-01-06T03:41:09.486Z,18.10
2023-01-06T03:43:31.812Z,18.00
2023-01-06T03:45:55.001Z,18.10
2023-01-06T03:48:10.975Z,18.10
2023-01-06T03:50:18.503Z,18.10
2023-01-06T03:52:35.362Z,18.10
2023-01-06T03:54:54.660Z,18.10
2023-01-06T03:57:02.190Z,18.10
2023-01-06T03:59:06.444Z,18.00
2023-01-06T04:01:09.810Z,18.10
2023-01-06T04:03:13.916Z,17.90
2023-01-06T04:05:19.358Z,18.00
2023-01-06T04:07:22.792Z,18.10
2023-01-06T04:09:25.222Z,17.90
2023-01-06T04:11:27.430Z,18.00
2023-01-06T04:13:30.413Z,18.00
2023-01-06T04:15:32.869Z,18.00
2023-01-06T04:17:39.784Z,18.00
2023-01-06T04:19:42.847Z,18.00
2023-01-06T04:21:45.031Z,17.90
2023-01-06T04:23:47.439Z,18.10
2023-01-06T04:25:49.578Z,18.00
2023-01-06T04:28:07.325Z,18.00
2023-01-06T04:30:09.578Z,18.00
2023-01-06T04:32:12.555Z,18.00
2023-01-06T04:34:15.222Z,18.00
2023-01-06T04:36:17.340Z,17.90
2023-01-06T04:38:23.727Z,17.90
2023-01-06T04:40:25.767Z,17.90
2023-01-06T04:42:27.932Z,18.00
2023-01-06T04:44:30.091Z,18.00
2023-01-06T04:46:32.082Z,18.00
2023-01-06T04:48:34.173Z,18.00
2023-01-06T04:50:36.125Z,17.80
2023-01-06T04:52:38.115Z,17.80
2023-01-06T04:54:40.167Z,17.90
2023-01-06T04:56:42.165Z,17.90
2023-01-06T04:58:44.182Z,17.90
2023-01-06T05:00:46.390Z,17.90
2023-01-06T05:02:48.509Z,17.90
2023-01-06T05:04:50.515Z,17.90
2023-01-06T05:06:52.671Z,17.90
2023-01-06T05:08:54.671Z,18.00
2023-01-06T05:11:13.905Z,17.80
2023-01-06T05:13:15.930Z,17.90
2023-01-06T05:15:17.989Z,18.00
2023-01-06T05:17:20.092Z,17.80
2023-01-06T05:19:22.042Z,17.80
2023-01-06T05:21:25.348Z,17.90
2023-01-06T05:23:27.427Z,17.80
2023-01-06T05:25:29.532Z,17.80
2023-01-06T05:27:31.532Z,17.90
2023-01-06T05:29:34.169Z,17.80
2023-01-06T05:31:36.174Z,17.80
2023-01-06T05:33:38.333Z,17.90
2023-01-06T05:35:40.332Z,17.80
2023-01-06T05:37:42.344Z,18.00
2023-01-06T05:39:44.339Z,17.90
2023-01-06T05:41:46.417Z,17.90
2023-01-06T05:43:48.537Z,17.90
2023-01-06T05:45:50.627Z,17.90
2023-01-06T05:47:52.796Z,17.90
2023-01-06T05:49:54.822Z,17.80
2023-01-06T05:51:56.853Z,17.90
2023-01-06T05:53:58.968Z,17.80
2023-01-06T05:56:04.154Z,17.90
2023-01-06T05:58:06.260Z,17.90
2023-01-06T06:00:08.522Z,17.80
2023-01-06T06:02:16.704Z,17.90
2023-01-06T06:04:18.640Z,17.90
2023-01-06T06:06:21.685Z,17.80
2023-01-06T06:08:23.621Z,17.80
2023-01-06T06:10:25.770Z,17.80
2023-01-06T06:12:27.820Z,17.80
2023-01-06T06:14:29.816Z,17.90
2023-01-06T06:16:31.789Z,17.80
2023-01-06T06:18:34.235Z,17.70
2023-01-06T06:20:36.137Z,17.80
2023-01-06T06:22:38.431Z,17.80
2023-01-06T06:24:40.389Z,17.80
2023-01-06T06:26:43.549Z,17.90
2023-01-06T06:28:45.497Z,17.80
2023-01-06T06:30:47.632Z,17.80
2023-01-06T06:32:49.715Z,17.80
2023-01-06T06:34:51.721Z,17.80
2023-01-06T06:36:53.737Z,17.70
2023-01-06T06:38:55.770Z,17.80
2023-01-06T06:40:57.673Z,17.80
2023-01-06T06:42:59.842Z,17.80
2023-01-06T06:45:01.823Z,17.80
2023-01-06T06:47:03.956Z,17.80
2023-01-06T06:49:05.904Z,17.70
2023-01-06T06:51:12.769Z,17.70
2023-01-06T06:53:14.779Z,17.80
2023-01-06T06:55:17.948Z,17.80
2023-01-06T06:57:19.937Z,17.80
2023-01-06T06:59:21.979Z,17.70
2023-01-06T07:01:24.103Z,17.80
2023-01-06T07:03:26.270Z,17.70
2023-01-06T07:05:28.361Z,17.80
2023-01-06T07:07:30.386Z,17.70
2023-01-06T07:09:32.350Z,17.80
2023-01-06T07:11:34.293Z,17.70
2023-01-06T07:13:36.240Z,17.70
2023-01-06T07:15:38.347Z,17.80
2023-01-06T07:17:40.325Z,17.70
2023-01-06T07:19:42.048Z,17.70
2023-01-06T07:21:43.778Z,17.70
2023-01-06T07:23:45.606Z,17.70
2023-01-06T07:25:51.316Z,17.70
2023-01-06T07:27:54.277Z,17.70
2023-01-06T07:29:56.021Z,17.80
2023-01-06T07:31:57.831Z,17.70
2023-01-06T07:33:59.569Z,17.80
2023-01-06T07:36:01.382Z,17.70
2023-01-06T07:38:04.269Z,17.70
2023-01-06T07:40:06.432Z,17.70
2023-01-06T07:42:11.296Z,17.70
2023-01-06T07:44:13.790Z,17.70
2023-01-06T07:46:15.593Z,17.80
2023-01-06T07:48:17.439Z,17.80
2023-01-06T07:50:19.201Z,17.80
2023-01-06T07:52:20.992Z,17.80
2023-01-06T07:54:22.855Z,17.70
2023-01-06T07:56:24.696Z,17.80
2023-01-06T07:58:26.423Z,17.70
2023-01-06T08:00:28.263Z,17.70
2023-01-06T08:02:30.238Z,17.70
2023-01-06T08:04:34.709Z,17.80
2023-01-06T08:06:41.903Z,17.80
2023-01-06T08:08:43.714Z,17.80
2023-01-06T08:10:45.444Z,17.80
2023-01-06T08:12:47.300Z,17.80
2023-01-06T08:14:49.022Z,17.80
2023-01-06T08:16:50.811Z,17.80
2023-01-06T08:18:52.538Z,17.80
2023-01-06T08:20:59.114Z,17.80
2023-01-06T08:23:01.325Z,17.80
2023-01-06T08:25:03.177Z,17.80
2023-01-06T08:27:04.959Z,17.80
2023-01-06T08:29:06.969Z,17.80
2023-01-06T08:31:09.567Z,17.80
2023-01-06T08:33:12.174Z,17.80
2023-01-06T08:35:14.081Z,17.80
2023-01-06T08:37:15.891Z,17.80
2023-01-06T08:39:17.636Z,17.90
2023-01-06T08:41:19.990Z,17.90
2023-01-06T08:43:22.005Z,17.90
2023-01-06T08:45:23.846Z,17.90
2023-01-06T08:47:25.633Z,17.90
2023-01-06T08:49:27.383Z,17.90
2023-01-06T08:51:29.332Z,17.90
2023-01-06T08:53:31.496Z,17.90
2023-01-06T08:55:33.538Z,18.00
2023-01-06T08:57:35.391Z,17.90
2023-01-06T08:59:37.123Z,18.00
2023-01-06T09:01:39.119Z,18.00
2023-01-06T09:03:40.994Z,17.90
2023-01-06T09:05:42.838Z,17.90
2023-01-06T09:07:44.607Z,17.90
2023-01-06T09:09:46.508Z,17.90
2023-01-06T09:11:48.267Z,17.90
2023-01-06T09:13:50.546Z,17.90
2023-01-06T09:15:52.350Z,18.00
2023-01-06T09:17:54.789Z,17.90
2023-01-06T09:19:56.535Z,18.00
2023-01-06T09:22:00.228Z,17.90
2023-01-06T09:24:02.649Z,17.90
2023-01-06T09:26:04.585Z,17.90
2023-01-06T09:28:06.292Z,17.90
2023-01-06T09:30:08.670Z,17.90
2023-01-06T09:32:10.537Z,17.90
2023-01-06T09:34:12.416Z,17.90
2023-01-06T09:36:14.130Z,18.00
2023-01-06T09:38:16.735Z,18.00
2023-01-06T09:40:22.706Z,18.00
2023-01-06T09:42:27.284Z,18.10
2023-01-06T09:44:30.835Z,18.00
2023-01-06T09:46:35.664Z,18.00
2023-01-06T09:48:40.026Z,18.00
2023-01-06T09:50:43.589Z,18.10
2023-01-06T09:53:01.363Z,18.10
2023-01-06T09:55:07.549Z,18.10
2023-01-06T09:57:12.056Z,18.10
2023-01-06T09:59:27.377Z,18.20
2023-01-06T10:01:32.228Z,18.20
2023-01-06T10:03:34.072Z,18.10
2023-01-06T10:05:46.407Z,18.20
2023-01-06T10:07:53.976Z,18.20
2023-01-06T10:09:55.694Z,18.20
2023-01-06T10:12:13.785Z,18.30
2023-01-06T10:14:30.845Z,18.30
2023-01-06T10:16:32.661Z,18.30
2023-01-06T10:18:43.416Z,18.30
2023-01-06T10:20:51.297Z,18.50
2023-01-06T10:23:11.773Z,18.50
2023-01-06T10:25:18.436Z,18.50
2023-01-06T10:27:26.506Z,18.50
2023-01-06T10:29:30.673Z,18.50
2023-01-06T10:31:34.351Z,18.60
2023-01-06T10:33:37.688Z,18.60
2023-01-06T10:35:39.694Z,18.70
2023-01-06T10:37:44.395Z,18.70
2023-01-06T10:39:48.167Z,18.70
2023-01-06T10:41:53.131Z,18.70
2023-01-06T10:43:54.929Z,18.80
2023-01-06T10:45:56.782Z,18.90
2023-01-06T10:47:58.958Z,18.90
2023-01-06T10:50:00.781Z,18.80
2023-01-06T10:52:03.011Z,18.90
2023-01-06T10:54:08.606Z,18.90
2023-01-06T10:56:10.728Z,18.80
2023-01-06T10:58:23.395Z,18.90
2023-01-06T11:00:25.316Z,18.80
2023-01-06T11:02:28.776Z,18.80
2023-01-06T11:04:30.758Z,18.80
2023-01-06T11:06:32.640Z,18.70
2023-01-06T11:08:35.446Z,18.80
2023-01-06T11:10:43.508Z,18.80
2023-01-06T11:12:45.372Z,18.80
2023-01-06T11:14:58.608Z,18.80
2023-01-06T11:17:02.135Z,18.70
2023-01-06T11:19:07.572Z,18.80
2023-01-06T11:21:13.569Z,18.70
2023-01-06T11:23:20.890Z,18.80
2023-01-06T11:25:25.420Z,18.80
2023-01-06T11:27:27.231Z,18.80
2023-01-06T11:29:33.019Z,18.90
2023-01-06T11:31:34.903Z,18.80
2023-01-06T11:33:38.216Z,18.80
2023-01-06T11:35:40.051Z,18.90
2023-01-06T11:37:43.018Z,18.90
2023-01-06T11:39:46.873Z,19.00
2023-01-06T11:41:52.503Z,19.00
2023-01-06T11:43:56.015Z,19.50
2023-01-06T11:45:59.951Z,19.60
2023-01-06T11:48:07.404Z,19.50
2023-01-06T11:50:17.516Z,19.50
2023-01-06T11:52:24.449Z,19.50
2023-01-06T11:54:36.672Z,19.50
2023-01-06T11:56:38.500Z,19.50
2023-01-06T11:58:40.208Z,19.50
2023-01-06T12:00:44.739Z,19.50
2023-01-06T12:02:46.443Z,19.50
2023-01-06T12:04:52.045Z,19.50
2023-01-06T12:06:58.057Z,19.60
2023-01-06T12:09:05.775Z,19.60
2023-01-06T12:11:12.425Z,19.50
2023-01-06T12:13:14.344Z,19.50
2023-01-06T12:15:16.996Z,19.50
2023-01-06T12:17:21.818Z,19.40
2023-01-06T12:19:33.112Z,19.30
2023-01-06T12:21:35.712Z,19.30
2023-01-06T12:23:39.905Z,19.40
2023-01-06T12:25:43.378Z,19.50
2023-01-06T12:27:53.876Z,19.60
2023-01-06T12:29:58.462Z,19.60
2023-01-06T12:32:10.032Z,19.70
2023-01-06T12:34:15.654Z,19.70
2023-01-06T12:36:28.945Z,19.70
2023-01-06T12:38:33.874Z,19.80
2023-01-06T12:40:46.521Z,19.80
2023-01-06T12:43:00.356Z,19.80
2023-01-06T12:45:05.271Z,19.80
2023-01-06T12:47:12.203Z,19.70
2023-01-06T12:49:37.161Z,19.70
2023-01-06T12:51:38.913Z,19.70
2023-01-06T12:53:56.619Z,19.60
2023-01-06T12:56:03.813Z,19.70
2023-01-06T12:58:11.983Z,19.70
2023-01-06T13:00:13.742Z,19.80
2023-01-06T13:02:24.390Z,19.80
2023-01-06T13:04:32.504Z,19.90
2023-01-06T13:06:46.612Z,19.80
2023-01-06T13:08:56.306Z,19.90
2023-01-06T13:10:58.068Z,19.90
2023-01-06T13:13:18.352Z,19.70
2023-01-06T13:15:23.316Z,19.60
2023-01-06T13:19:38.468Z,19.40
2023-01-06T13:21:40.802Z,19.30
2023-01-06T13:24:04.802Z,19.40
2023-01-06T13:26:13.668Z,19.40
2023-01-06T13:28:21.741Z,19.30
2023-01-06T13:30:32.392Z,19.50
2023-01-06T13:32:52.688Z,19.30
2023-01-06T13:35:06.527Z,19.50
2023-01-06T13:37:20.630Z,19.30
2023-01-06T13:39:26.967Z,19.30
2023-01-06T13:41:34.169Z,19.30
2023-01-06T13:43:36.403Z,19.40
2023-01-06T13:45:42.268Z,19.40
2023-01-06T13:47:45.605Z,19.30
2023-01-06T13:49:48.080Z,19.40
2023-01-06T13:51:50.751Z,19.50
2023-01-06T13:53:52.651Z,19.30
2023-01-06T13:56:12.583Z,19.40
2023-01-06T13:58:23.320Z,19.40
2023-01-06T14:00:26.387Z,19.40
2023-01-06T14:02:34.458Z,19.50
2023-01-06T14:04:36.486Z,19.60
2023-01-06T14:06:39.945Z,19.60
2023-01-06T14:08:48.264Z,19.70
2023-01-06T14:10:55.805Z,19.60
2023-01-06T14:12:57.913Z,19.50
2023-01-06T14:15:01.584Z,19.40
2023-01-06T14:17:03.837Z,19.40
2023-01-06T14:19:07.430Z,19.30
2023-01-06T14:21:12.457Z,19.30
2023-01-06T14:23:14.316Z,19.30
2023-01-06T14:25:21.966Z,19.30
2023-01-06T14:27:42.744Z,19.30
2023-01-06T14:29:45.599Z,19.40
2023-01-06T14:31:47.621Z,19.60
2023-01-06T14:33:53.170Z,19.50
2023-01-06T14:36:04.930Z,19.50
2023-01-06T14:38:12.714Z,19.50
2023-01-06T14:40:25.808Z,19.40
2023-01-06T14:42:38.645Z,19.40
2023-01-06T14:44:45.324Z,19.50
2023-01-06T14:46:50.797Z,19.60
2023-01-06T14:48:59.196Z,19.50
2023-01-06T14:51:01.386Z,19.50
2023-01-06T14:53:06.347Z,19.60
2023-01-06T14:55:09.878Z,19.50
2023-01-06T14:57:29.933Z,19.50
2023-01-06T14:59:31.977Z,19.40
2023-01-06T15:01:35.556Z,19.50
2023-01-06T15:03:39.827Z,19.50
2023-01-06T15:05:41.766Z,19.50
2023-01-06T15:07:55.784Z,19.50
2023-01-06T15:10:13.116Z,19.40
2023-01-06T15:12:49.384Z,19.40
2023-01-06T15:15:14.357Z,19.40
2023-01-06T15:17:16.626Z,19.40
2023-01-06T15:19:19.026Z,19.40
2023-01-06T15:21:22.403Z,19.50
2023-01-06T15:23:25.246Z,19.40
2023-01-06T15:25:28.507Z,19.50
2023-01-06T15:27:30.846Z,19.40
2023-01-06T15:29:33.629Z,19.30
2023-01-06T15:31:37.114Z,19.30
2023-01-06T15:33:41.705Z,19.30
2023-01-06T15:35:45.931Z,19.40
2023-01-06T15:37:48.848Z,19.40
2023-01-06T15:39:52.211Z,19.40
2023-01-06T15:41:55.087Z,19.40
2023-01-06T15:43:57.992Z,19.30
2023-01-06T15:46:03.971Z,19.30
2023-01-06T15:48:16.807Z,19.30
2023-01-06T15:50:20.367Z,19.40
2023-01-06T15:52:33.709Z,19.30
2023-01-06T15:54:37.986Z,19.30
2023-01-06T15:56:40.394Z,19.20
2023-01-06T15:58:42.792Z,19.20
2023-01-06T16:00:47.541Z,19.20
2023-01-06T16:02:49.883Z,19.20
2023-01-06T16:04:52.228Z,19.10
2023-01-06T16:06:54.515Z,19.10
2023-01-06T16:09:14.991Z,19.20
2023-01-06T16:11:17.120Z,19.20
2023-01-06T16:13:25.012Z,19.10
2023-01-06T16:15:48.684Z,19.10
2023-01-06T16:17:51.180Z,19.20
2023-01-06T16:19:57.875Z,19.20
2023-01-06T16:22:03.720Z,19.10
2023-01-06T16:24:06.657Z,19.20
2023-01-06T16:26:16.235Z,19.20
2023-01-06T16:28:20.775Z,19.00
2023-01-06T16:30:25.905Z,19.00
2023-01-06T16:32:28.816Z,19.00
2023-01-06T16:34:31.881Z,19.10
2023-01-06T16:36:34.094Z,19.00
2023-01-06T16:38:37.917Z,19.00
2023-01-06T16:40:40.072Z,19.00
2023-01-06T16:42:42.598Z,19.00
2023-01-06T16:44:44.725Z,19.00
2023-01-06T16:46:48.123Z,18.90
2023-01-06T16:48:53.603Z,18.90
2023-01-06T16:50:55.956Z,18.80
2023-01-06T16:53:02.406Z,18.90
2023-01-06T16:55:11.425Z,18.80
2023-01-06T16:57:13.677Z,18.80
2023-01-06T16:59:17.246Z,18.90
2023-01-06T17:01:21.109Z,18.90
2023-01-06T17:03:24.678Z,19.00
2023-01-06T17:05:32.800Z,18.80
2023-01-06T17:07:40.549Z,18.80
2023-01-06T17:09:43.713Z,18.80
2023-01-06T17:11:47.641Z,18.80
2023-01-06T17:13:51.407Z,18.90
2023-01-06T17:16:12.242Z,18.80
2023-01-06T17:18:26.154Z,18.80
2023-01-06T17:20:29.838Z,18.90
2023-01-06T17:22:32.370Z,18.90
2023-01-06T17:24:35.376Z,18.80
2023-01-06T17:26:38.158Z,18.90
2023-01-06T17:28:41.144Z,18.80
2023-01-06T17:30:43.580Z,18.80
2023-01-06T17:32:46.842Z,18.80
2023-01-06T17:34:48.964Z,18.90
2023-01-06T17:36:52.642Z,18.80
2023-01-06T17:38:55.091Z,18.80
2023-01-06T17:40:57.605Z,18.80
2023-01-06T17:43:05.789Z,18.70
2023-01-06T17:45:37.592Z,18.70
2023-01-06T17:47:48.820Z,18.60
2023-01-06T17:49:52.971Z,18.60
2023-01-06T17:51:55.343Z,18.60
2023-01-06T17:53:58.652Z,18.60
2023-01-06T17:56:02.103Z,18.70
2023-01-06T17:58:09.569Z,18.70
2023-01-06T18:00:18.003Z,18.90
2023-01-06T18:02:39.316Z,18.80
2023-01-06T18:04:41.653Z,18.70
2023-01-06T18:06:46.153Z,18.70
2023-01-06T18:08:49.422Z,18.60
2023-01-06T18:10:53.492Z,18.70
2023-01-06T18:12:57.122Z,18.70
2023-01-06T18:14:59.449Z,18.60
2023-01-06T18:17:14.230Z,18.70
2023-01-06T18:19:23.570Z,18.80
2023-01-06T18:21:34.094Z,18.70
2023-01-06T18:23:38.266Z,18.60
2023-01-06T18:25:40.805Z,18.70
2023-01-06T18:27:42.954Z,18.70
2023-01-06T18:29:45.489Z,18.60
2023-01-06T18:31:49.595Z,18.60
2023-01-06T18:33:52.001Z,18.50
2023-01-06T18:35:54.334Z,18.50
2023-01-06T18:38:02.122Z,18.60
2023-01-06T18:40:07.318Z,18.60
2023-01-06T18:42:17.729Z,18.50
2023-01-06T18:44:25.504Z,18.60
2023-01-06T18:46:31.156Z,18.60
2023-01-06T18:48:39.284Z,18.40
2023-01-06T18:50:46.426Z,18.60
2023-01-06T18:52:49.334Z,18.40
2023-01-06T18:54:51.852Z,18.50
2023-01-06T18:56:54.046Z,18.60
2023-01-06T18:58:57.641Z,18.50
2023-01-06T19:01:11.500Z,18.60
2023-01-06T19:03:33.448Z,18.60
2023-01-06T19:05:35.703Z,18.60
2023-01-06T19:07:37.877Z,18.60
2023-01-06T19:09:40.905Z,18.40
2023-01-06T19:11:43.697Z,18.40
2023-01-06T19:13:46.556Z,18.40
2023-01-06T19:15:49.097Z,18.50
2023-01-06T19:17:51.786Z,18.50
2023-01-06T19:19:55.807Z,18.50
2023-01-06T19:22:07.202Z,18.60
2023-01-06T19:24:27.847Z,18.50
2023-01-06T19:26:34.253Z,18.40
2023-01-06T19:28:36.738Z,18.50
2023-01-06T19:30:40.411Z,18.50
2023-01-06T19:32:42.844Z,18.50
2023-01-06T19:34:45.227Z,18.50
2023-01-06T19:36:49.537Z,18.40
2023-01-06T19:38:52.117Z,18.40
2023-01-06T19:40:55.427Z,18.40
2023-01-06T19:43:09.751Z,18.30
2023-01-06T19:45:28.271Z,18.50
2023-01-06T19:47:36.872Z,18.50
2023-01-06T19:49:41.942Z,18.50
2023-01-06T19:51:44.493Z,18.50
2023-01-06T19:53:51.219Z,18.50
2023-01-06T19:55:55.705Z,18.50
2023-01-06T19:58:02.446Z,18.50
2023-01-06T20:00:17.868Z,18.50
2023-01-06T20:02:46.377Z,18.50
2023-01-06T20:04:51.571Z,18.60
2023-01-06T20:06:56.038Z,18.50
2023-01-06T20:09:00.841Z,18.40
2023-01-06T20:11:03.083Z,18.40
2023-01-06T20:13:07.525Z,18.30
2023-01-06T20:15:09.984Z,18.50
2023-01-06T20:17:12.283Z,18.30
2023-01-06T20:19:19.555Z,18.40
2023-01-06T20:21:22.908Z,18.50
2023-01-06T20:23:27.573Z,18.40
2023-01-06T20:25:29.868Z,18.40
2023-01-06T20:27:33.488Z,18.40
2023-01-06T20:29:35.902Z,18.40
2023-01-06T20:31:39.193Z,18.40
2023-01-06T20:33:41.650Z,18.40
2023-01-06T20:35:43.952Z,18.50
2023-01-06T20:37:46.404Z,18.40
2023-01-06T20:39:51.800Z,18.40
2023-01-06T20:41:53.922Z,18.40
2023-01-06T20:43:56.213Z,18.40
2023-01-06T20:45:58.758Z,18.50
2023-01-06T20:48:20.511Z,18.40
2023-01-06T20:50:22.846Z,18.50
2023-01-06T20:52:25.162Z,18.50
2023-01-06T20:54:27.322Z,18.50
2023-01-06T20:56:29.751Z,18.40
2023-01-06T20:58:31.908Z,18.40
2023-01-06T21:00:34.236Z,18.40
2023-01-06T21:02:36.491Z,18.40
2023-01-06T21:04:39.828Z,18.40
2023-01-06T21:06:41.947Z,18.30
2023-01-06T21:08:44.480Z,18.30
2023-01-06T21:10:54.372Z,18.20
2023-01-06T21:12:57.772Z,18.30
2023-01-06T21:15:00.007Z,18.20
2023-01-06T21:17:02.622Z,18.30
2023-01-06T21:19:05.795Z,18.20
2023-01-06T21:21:11.392Z,18.30
2023-01-06T21:23:15.313Z,18.30
2023-01-06T21:25:17.759Z,18.30
2023-01-06T21:27:20.027Z,18.30
2023-01-06T21:29:22.694Z,18.20
2023-01-06T21:31:24.907Z,18.30
2023-01-06T21:33:27.293Z,18.30
2023-01-06T21:35:32.053Z,18.40
2023-01-06T21:37:34.425Z,18.30
2023-01-06T21:39:36.681Z,18.20
2023-01-06T21:41:39.688Z,18.20
2023-01-06T21:43:41.962Z,18.30
2023-01-06T21:45:44.958Z,18.30
2023-01-06T21:47:47.115Z,18.30
2023-01-06T21:49:49.637Z,18.20
2023-01-06T21:51:57.559Z,18.30
2023-01-06T21:54:00.414Z,18.30
2023-01-06T21:56:08.843Z,18.20
2023-01-06T21:58:11.283Z,18.20
2023-01-06T22:00:13.905Z,18.20
2023-01-06T22:02:16.450Z,18.20
2023-01-06T22:04:18.973Z,18.20
2023-01-06T22:06:21.873Z,18.20
2023-01-06T22:08:24.460Z,18.10
2023-01-06T22:10:27.374Z,18.20
2023-01-06T22:12:31.691Z,18.20
2023-01-06T22:14:37.566Z,18.20
2023-01-06T22:16:40.512Z,18.20
2023-01-06T22:18:45.698Z,18.20
2023-01-06T22:20:48.415Z,18.20
2023-01-06T22:22:50.937Z,18.20
2023-01-06T22:24:54.654Z,18.20
2023-01-06T22:27:01.580Z,18.20
2023-01-06T22:29:04.390Z,18.30
2023-01-06T22:31:06.693Z,18.30
2023-01-06T22:33:09.175Z,18.30
2023-01-06T22:35:12.261Z,18.30
2023-01-06T22:37:15.026Z,18.30
2023-01-06T22:39:17.374Z,18.20
2023-01-06T22:41:19.875Z,18.20
2023-01-06T22:43:30.293Z,18.20
2023-01-06T22:45:34.701Z,18.30
2023-01-06T22:47:39.276Z,18.20
2023-01-06T22:49:45.617Z,18.10
2023-01-06T22:51:47.939Z,18.20
2023-01-06T22:53:50.191Z,18.20
2023-01-06T22:55:58.237Z,18.20
2023-01-06T22:58:03.321Z,18.20
2023-01-06T23:00:08.410Z,18.20
2023-01-06T23:02:13.609Z,18.10
2023-01-06T23:04:16.349Z,18.20
2023-01-06T23:06:18.718Z,18.10
2023-01-06T23:08:22.497Z,18.20
2023-01-06T23:10:26.438Z,18.20
2023-01-06T23:12:31.006Z,18.20
2023-01-06T23:14:36.043Z,18.00
2023-01-06T23:16:39.380Z,18.10
2023-01-06T23:18:44.003Z,18.20
2023-01-06T23:20:55.708Z,18.00
2023-01-06T23:22:58.212Z,18.20
2023-01-06T23:25:00.583Z,18.10
2023-01-06T23:27:02.895Z,18.10
2023-01-06T23:29:05.362Z,18.20
2023-01-06T23:31:09.502Z,18.00
2023-01-06T23:33:11.859Z,18.10
2023-01-06T23:35:14.577Z,18.10
2023-01-06T23:37:24.465Z,18.10
2023-01-06T23:39:29.191Z,18.10
2023-01-06T23:41:33.255Z,18.10
2023-01-06T23:43:36.340Z,18.20
2023-01-06T23:45:39.767Z,18.00
2023-01-06T23:47:42.292Z,18.10
2023-01-06T23:49:47.280Z,18.10
2023-01-06T23:51:49.564Z,18.00
2023-01-06T23:53:54.428Z,18.10
2023-01-06T23:56:16.476Z,18.10
2023-01-06T23:58:23.478Z,18.00
